WXM80 ListenWXM80 Stop

You find our weather info also at:

UK Metoffice

WeatherCloud

Weather Underground

Northeastern Weather Network

AWEKAS

Citizen Weather Observer Program (CWOP)

HAMweather, WeatherForYou, PWS Weather


Weather Underground History page Text

Daily Summary for January 12, 2017 Units:  Both    English   Metric
« Previous Day
Next Day »
Daily Weekly Monthly Yearly Custom
  High: Low: Average:
Temperature: 64.0 °F /  17.8 °C 46.9 °F /  8.3 °C 54.5 °F /  12.5 °C
Dew Point: 55.9 °F /  13.3 °C 45.8 °F /  7.7 °C 50.8 °F /  10.4 °C
Humidity: 97 % 73 % 88 %
Wind Speed: 10.7 mph /  17.2 km/h - 4.6 mph /  7.4 km/h
Wind Gust: 23.0 mph /  37 km/h - -
Wind:- - SSW
Pressure: 30.16 in /  1021.2 hPa 29.93 in /  1013.4 hPa -
Precipitation: 0.00 in /  0 mm    
Historical Graphs
 
 
Tabular Data for January 12, 2017
Time Temperature Dew Point Pressure Wind Wind Speed Wind Gust Humidity Rainfall Rate (Hourly)
00:00 46.9 °F /  8.3 °C 45.8 °F /  7.7 °C 30.16 in /  1021.2 hPa SSW 3.6 mph /  5.8 km/h 4.6 mph /  7.4 km/h 96 % 0.04 in /  1.02 mm
00:05 47.0 °F /  8.3 °C 45.9 °F /  7.7 °C 30.15 in /  1020.9 hPa SSW 3.6 mph /  5.8 km/h 4.6 mph /  7.4 km/h 96 % 0.05 in /  1.27 mm
00:10 47.1 °F /  8.4 °C 46.0 °F /  7.8 °C 30.15 in /  1020.9 hPa SSE 4.9 mph /  7.9 km/h 10.4 mph /  16.7 km/h 96 % 0.04 in /  1.02 mm
00:15 47.3 °F /  8.5 °C 46.2 °F /  7.9 °C 30.15 in /  1020.9 hPa South 7.4 mph /  11.9 km/h 8.0 mph /  12.9 km/h 96 % 0.04 in /  1.02 mm
00:20 47.5 °F /  8.6 °C 46.4 °F /  8 °C 30.15 in /  1020.9 hPa SSW 5.2 mph /  8.4 km/h 10.0 mph /  16.1 km/h 96 % 0.04 in /  1.02 mm
00:25 47.6 °F /  8.7 °C 46.5 °F /  8.1 °C 30.14 in /  1020.5 hPa SW 4.8 mph /  7.7 km/h 6.9 mph /  11.1 km/h 96 % 0.04 in /  1.02 mm
00:30 47.7 °F /  8.7 °C 46.6 °F /  8.1 °C 30.14 in /  1020.5 hPa SSW 6.4 mph /  10.3 km/h 10.4 mph /  16.7 km/h 96 % 0.04 in /  1.02 mm
00:35 47.7 °F /  8.7 °C 46.6 °F /  8.1 °C 30.14 in /  1020.5 hPa South 4.8 mph /  7.7 km/h 9.2 mph /  14.8 km/h 96 % 0.05 in /  1.27 mm
00:40 47.7 °F /  8.7 °C 46.6 °F /  8.1 °C 30.14 in /  1020.5 hPa South 3.8 mph /  6.1 km/h 9.2 mph /  14.8 km/h 96 % 0.04 in /  1.02 mm
00:45 47.8 °F /  8.8 °C 46.7 °F /  8.2 °C 30.14 in /  1020.5 hPa WSW 6.3 mph /  10.1 km/h 11.5 mph /  18.5 km/h 96 % 0.04 in /  1.02 mm
00:50 47.8 °F /  8.8 °C 46.7 °F /  8.2 °C 30.14 in /  1020.5 hPa SSW 5.8 mph /  9.3 km/h 9.0 mph /  14.5 km/h 96 % 0.04 in /  1.02 mm
00:55 47.8 °F /  8.8 °C 46.7 °F /  8.2 °C 30.14 in /  1020.5 hPa SSW 4.2 mph /  6.8 km/h 8.1 mph /  13 km/h 96 % 0.04 in /  1.02 mm
01:00 47.8 °F /  8.8 °C 46.7 °F /  8.2 °C 30.13 in /  1020.2 hPa SW 3.1 mph /  5 km/h 7.0 mph /  11.3 km/h 96 % 0.04 in /  1.02 mm
01:06 47.9 °F /  8.8 °C 46.8 °F /  8.2 °C 30.13 in /  1020.2 hPa SSW 7.7 mph /  12.4 km/h 12.0 mph /  19.3 km/h 96 % 0.03 in /  0.76 mm
01:11 48.0 °F /  8.9 °C 46.9 °F /  8.3 °C 30.13 in /  1020.2 hPa WSW 6.5 mph /  10.5 km/h 9.0 mph /  14.5 km/h 96 % 0.03 in /  0.76 mm
01:16 48.1 °F /  8.9 °C 47.3 °F /  8.5 °C 30.13 in /  1020.2 hPa SSW 4.9 mph /  7.9 km/h 13.8 mph /  22.2 km/h 97 % 0.04 in /  1.02 mm
01:21 48.2 °F /  9 °C 47.4 °F /  8.6 °C 30.12 in /  1019.9 hPa SSW 5.3 mph /  8.5 km/h 12.0 mph /  19.3 km/h 97 % 0.03 in /  0.76 mm
01:26 48.3 °F /  9.1 °C 47.5 °F /  8.6 °C 30.12 in /  1019.9 hPa South 8.0 mph /  12.9 km/h 12.7 mph /  20.4 km/h 97 % 0.03 in /  0.76 mm
01:31 48.5 °F /  9.2 °C 47.4 °F /  8.6 °C 30.12 in /  1019.9 hPa SSW 4.5 mph /  7.2 km/h 10.0 mph /  16.1 km/h 96 % 0.03 in /  0.76 mm
01:36 48.5 °F /  9.2 °C 47.4 °F /  8.6 °C 30.12 in /  1019.9 hPa SSW 6.9 mph /  11.1 km/h 12.7 mph /  20.4 km/h 96 % 0.02 in /  0.51 mm
01:41 48.6 °F /  9.2 °C 47.5 °F /  8.6 °C 30.12 in /  1019.9 hPa SSW 6.2 mph /  10 km/h 15.0 mph /  24.1 km/h 96 % 0.02 in /  0.51 mm
01:46 48.7 °F /  9.3 °C 47.6 °F /  8.7 °C 30.12 in /  1019.9 hPa SW 3.3 mph /  5.3 km/h 11.5 mph /  18.5 km/h 96 % 0.03 in /  0.76 mm
01:51 48.7 °F /  9.3 °C 47.6 °F /  8.7 °C 30.12 in /  1019.9 hPa SW 2.1 mph /  3.4 km/h 7.0 mph /  11.3 km/h 96 % 0.03 in /  0.76 mm
01:56 48.7 °F /  9.3 °C 47.6 °F /  8.7 °C 30.12 in /  1019.9 hPa SW 3.1 mph /  5 km/h 10.0 mph /  16.1 km/h 96 % 0.02 in /  0.51 mm
02:01 48.7 °F /  9.3 °C 47.6 °F /  8.7 °C 30.12 in /  1019.9 hPa SW 6.7 mph /  10.8 km/h 10.4 mph /  16.7 km/h 96 % 0.02 in /  0.51 mm
02:06 48.7 °F /  9.3 °C 47.6 °F /  8.7 °C 30.12 in /  1019.9 hPa SSW 5.9 mph /  9.5 km/h 11.0 mph /  17.7 km/h 96 % 0.02 in /  0.51 mm
02:12 48.7 °F /  9.3 °C 47.6 °F /  8.7 °C 30.12 in /  1019.9 hPa SSW 4.2 mph /  6.8 km/h 6.9 mph /  11.1 km/h 96 % 0.02 in /  0.51 mm
02:17 48.6 °F /  9.2 °C 47.5 °F /  8.6 °C 30.12 in /  1019.9 hPa SSW 5.1 mph /  8.2 km/h 10.4 mph /  16.7 km/h 96 % 0.02 in /  0.51 mm
02:22 48.6 °F /  9.2 °C 47.5 °F /  8.6 °C 30.11 in /  1019.5 hPa SSW 4.1 mph /  6.6 km/h 8.0 mph /  12.9 km/h 96 % 0.02 in /  0.51 mm
02:27 48.6 °F /  9.2 °C 47.5 °F /  8.6 °C 30.11 in /  1019.5 hPa SSW 4.7 mph /  7.6 km/h 11.5 mph /  18.5 km/h 96 % 0.02 in /  0.51 mm
02:32 48.6 °F /  9.2 °C 47.5 °F /  8.6 °C 30.12 in /  1019.9 hPa SSW 3.9 mph /  6.3 km/h 10.4 mph /  16.7 km/h 96 % 0.02 in /  0.51 mm
02:37 48.6 °F /  9.2 °C 47.5 °F /  8.6 °C 30.11 in /  1019.5 hPa SSW 4.9 mph /  7.9 km/h 7.0 mph /  11.3 km/h 96 % 0.02 in /  0.51 mm
02:42 48.6 °F /  9.2 °C 47.5 °F /  8.6 °C 30.11 in /  1019.5 hPa SSW 3.0 mph /  4.8 km/h 9.2 mph /  14.8 km/h 96 % 0.02 in /  0.51 mm
02:47 48.6 °F /  9.2 °C 47.5 °F /  8.6 °C 30.11 in /  1019.5 hPa SW 8.8 mph /  14.2 km/h 11.5 mph /  18.5 km/h 96 % 0.01 in /  0.25 mm
02:52 48.6 °F /  9.2 °C 47.5 °F /  8.6 °C 30.12 in /  1019.9 hPa SW 4.2 mph /  6.8 km/h 11.0 mph /  17.7 km/h 96 % 0.01 in /  0.25 mm
02:57 48.6 °F /  9.2 °C 47.5 °F /  8.6 °C 30.11 in /  1019.5 hPa SSW 6.6 mph /  10.6 km/h 11.5 mph /  18.5 km/h 96 % 0.01 in /  0.25 mm
03:02 48.6 °F /  9.2 °C 47.5 °F /  8.6 °C 30.11 in /  1019.5 hPa South 3.1 mph /  5 km/h 9.2 mph /  14.8 km/h 96 % 0.02 in /  0.51 mm
03:07 48.6 °F /  9.2 °C 47.5 °F /  8.6 °C 30.11 in /  1019.5 hPa SSW 5.4 mph /  8.7 km/h 10.4 mph /  16.7 km/h 96 % 0.02 in /  0.51 mm
03:12 48.6 °F /  9.2 °C 47.5 °F /  8.6 °C 30.12 in /  1019.9 hPa SSW 5.6 mph /  9 km/h 8.1 mph /  13 km/h 96 % 0.02 in /  0.51 mm
03:17 48.6 °F /  9.2 °C 47.5 °F /  8.6 °C 30.12 in /  1019.9 hPa South 3.8 mph /  6.1 km/h 5.8 mph /  9.3 km/h 96 % 0.01 in /  0.25 mm
03:22 48.6 °F /  9.2 °C 47.5 °F /  8.6 °C 30.12 in /  1019.9 hPa South 5.8 mph /  9.3 km/h 9.2 mph /  14.8 km/h 96 % 0.01 in /  0.25 mm
03:27 48.6 °F /  9.2 °C 47.5 °F /  8.6 °C 30.12 in /  1019.9 hPa SSW 4.5 mph /  7.2 km/h 8.1 mph /  13 km/h 96 % 0.01 in /  0.25 mm
03:32 48.6 °F /  9.2 °C 47.5 °F /  8.6 °C 30.11 in /  1019.5 hPa SSW 5.6 mph /  9 km/h 16.1 mph /  25.9 km/h 96 % 0.01 in /  0.25 mm
03:38 48.7 °F /  9.3 °C 47.6 °F /  8.7 °C 30.11 in /  1019.5 hPa SSW 3.9 mph /  6.3 km/h 6.0 mph /  9.7 km/h 96 % 0.01 in /  0.25 mm
03:43 48.8 °F /  9.3 °C 47.7 °F /  8.7 °C 30.10 in /  1019.2 hPa SW 1.4 mph /  2.3 km/h 5.8 mph /  9.3 km/h 96 % 0.01 in /  0.25 mm
03:48 48.9 °F /  9.4 °C 47.8 °F /  8.8 °C 30.11 in /  1019.5 hPa SSW 6.7 mph /  10.8 km/h 11.0 mph /  17.7 km/h 96 % 0.01 in /  0.25 mm
03:53 49.0 °F /  9.4 °C 48.2 °F /  9 °C 30.10 in /  1019.2 hPa SSW 3.1 mph /  5 km/h 6.9 mph /  11.1 km/h 97 % 0.02 in /  0.51 mm
03:58 49.1 °F /  9.5 °C 48.0 °F /  8.9 °C 30.10 in /  1019.2 hPa South 4.1 mph /  6.6 km/h 6.9 mph /  11.1 km/h 96 % 0.02 in /  0.51 mm
04:03 49.1 °F /  9.5 °C 48.0 °F /  8.9 °C 30.09 in /  1018.8 hPa South 5.7 mph /  9.2 km/h 10.4 mph /  16.7 km/h 96 % 0.01 in /  0.25 mm
04:08 49.2 °F /  9.6 °C 48.1 °F /  8.9 °C 30.09 in /  1018.8 hPa South 4.1 mph /  6.6 km/h 8.1 mph /  13 km/h 96 % 0.01 in /  0.25 mm
04:13 49.2 °F /  9.6 °C 48.1 °F /  8.9 °C 30.09 in /  1018.8 hPa SW 4.6 mph /  7.4 km/h 10.4 mph /  16.7 km/h 96 % 0.01 in /  0.25 mm
04:18 49.3 °F /  9.6 °C 48.2 °F /  9 °C 30.09 in /  1018.8 hPa South 4.3 mph /  6.9 km/h 6.9 mph /  11.1 km/h 96 % 0.01 in /  0.25 mm
04:23 49.3 °F /  9.6 °C 48.2 °F /  9 °C 30.09 in /  1018.8 hPa SSE 4.4 mph /  7.1 km/h 9.2 mph /  14.8 km/h 96 % 0.01 in /  0.25 mm
04:28 49.2 °F /  9.6 °C 48.1 °F /  8.9 °C 30.08 in /  1018.5 hPa SW 5.1 mph /  8.2 km/h 7.0 mph /  11.3 km/h 96 % 0.01 in /  0.25 mm
04:33 49.2 °F /  9.6 °C 48.1 °F /  8.9 °C 30.08 in /  1018.5 hPa SSW 2.5 mph /  4 km/h 5.0 mph /  8 km/h 96 % 0.01 in /  0.25 mm
04:38 49.1 °F /  9.5 °C 48.0 °F /  8.9 °C 30.09 in /  1018.8 hPa SSW 3.3 mph /  5.3 km/h 5.8 mph /  9.3 km/h 96 % 0.01 in /  0.25 mm
04:43 48.9 °F /  9.4 °C 47.8 °F /  8.8 °C 30.08 in /  1018.5 hPa SSW 1.2 mph /  1.9 km/h 3.5 mph /  5.6 km/h 96 % 0.01 in /  0.25 mm
04:49 48.8 °F /  9.3 °C 47.7 °F /  8.7 °C 30.07 in /  1018.2 hPa SSW 3.5 mph /  5.6 km/h 5.8 mph /  9.3 km/h 96 % 0.00 in /  0 mm
04:54 48.8 °F /  9.3 °C 47.7 °F /  8.7 °C 30.06 in /  1017.8 hPa South 3.0 mph /  4.8 km/h 8.1 mph /  13 km/h 96 % 0.00 in /  0 mm
04:59 48.8 °F /  9.3 °C 47.7 °F /  8.7 °C 30.07 in /  1018.2 hPa South 3.9 mph /  6.3 km/h 5.8 mph /  9.3 km/h 96 % 0.01 in /  0.25 mm
05:04 48.7 °F /  9.3 °C 47.6 °F /  8.7 °C 30.06 in /  1017.8 hPa SSW 6.1 mph /  9.8 km/h 11.5 mph /  18.5 km/h 96 % 0.01 in /  0.25 mm
05:09 48.7 °F /  9.3 °C 47.6 °F /  8.7 °C 30.07 in /  1018.2 hPa SSW 4.2 mph /  6.8 km/h 6.9 mph /  11.1 km/h 96 % 0.01 in /  0.25 mm
05:14 48.7 °F /  9.3 °C 47.6 °F /  8.7 °C 30.07 in /  1018.2 hPa SW 5.4 mph /  8.7 km/h 9.2 mph /  14.8 km/h 96 % 0.01 in /  0.25 mm
05:19 48.7 °F /  9.3 °C 47.6 °F /  8.7 °C 30.07 in /  1018.2 hPa SSW 5.6 mph /  9 km/h 9.2 mph /  14.8 km/h 96 % 0.01 in /  0.25 mm
05:24 48.6 °F /  9.2 °C 47.5 °F /  8.6 °C 30.07 in /  1018.2 hPa SSW 8.0 mph /  12.9 km/h 13.0 mph /  20.9 km/h 96 % 0.00 in /  0 mm
05:29 48.6 °F /  9.2 °C 47.5 °F /  8.6 °C 30.07 in /  1018.2 hPa SSW 6.0 mph /  9.7 km/h 9.0 mph /  14.5 km/h 96 % 0.00 in /  0 mm
05:34 48.6 °F /  9.2 °C 47.5 °F /  8.6 °C 30.07 in /  1018.2 hPa South 6.0 mph /  9.7 km/h 10.0 mph /  16.1 km/h 96 % 0.00 in /  0 mm
05:39 48.5 °F /  9.2 °C 47.4 °F /  8.6 °C 30.06 in /  1017.8 hPa SSW 5.0 mph /  8 km/h 12.0 mph /  19.3 km/h 96 % 0.00 in /  0 mm
05:44 48.5 °F /  9.2 °C 47.4 °F /  8.6 °C 30.06 in /  1017.8 hPa SW 6.8 mph /  10.9 km/h 10.0 mph /  16.1 km/h 96 % 0.01 in /  0.25 mm
05:49 48.5 °F /  9.2 °C 47.4 °F /  8.6 °C 30.06 in /  1017.8 hPa South 2.8 mph /  4.5 km/h 7.0 mph /  11.3 km/h 96 % 0.01 in /  0.25 mm
05:54 48.4 °F /  9.1 °C 47.3 °F /  8.5 °C 30.05 in /  1017.5 hPa South 6.0 mph /  9.7 km/h 9.0 mph /  14.5 km/h 96 % 0.00 in /  0 mm
05:59 48.4 °F /  9.1 °C 47.3 °F /  8.5 °C 30.05 in /  1017.5 hPa South 4.3 mph /  6.9 km/h 5.0 mph /  8 km/h 96 % 0.00 in /  0 mm
06:04 48.4 °F /  9.1 °C 47.3 °F /  8.5 °C 30.05 in /  1017.5 hPa South 6.0 mph /  9.7 km/h 12.0 mph /  19.3 km/h 96 % 0.00 in /  0 mm
06:09 48.4 °F /  9.1 °C 47.3 °F /  8.5 °C 30.05 in /  1017.5 hPa SSW 2.0 mph /  3.2 km/h 10.0 mph /  16.1 km/h 96 % 0.00 in /  0 mm
06:14 48.4 °F /  9.1 °C 47.3 °F /  8.5 °C 30.06 in /  1017.8 hPa SSW 5.0 mph /  8 km/h 10.0 mph /  16.1 km/h 96 % 0.00 in /  0 mm
06:19 48.5 °F /  9.2 °C 47.4 °F /  8.6 °C 30.06 in /  1017.8 hPa SW 3.8 mph /  6.1 km/h 5.0 mph /  8 km/h 96 % 0.01 in /  0.25 mm
06:24 48.5 °F /  9.2 °C 47.4 °F /  8.6 °C 30.06 in /  1017.8 hPa SSW 5.0 mph /  8 km/h 9.0 mph /  14.5 km/h 96 % 0.00 in /  0 mm
06:29 48.5 °F /  9.2 °C 47.4 °F /  8.6 °C 30.06 in /  1017.8 hPa South 4.6 mph /  7.4 km/h 9.2 mph /  14.8 km/h 96 % 0.01 in /  0.25 mm
06:34 48.5 °F /  9.2 °C 47.4 °F /  8.6 °C 30.06 in /  1017.8 hPa South 6.4 mph /  10.3 km/h 8.0 mph /  12.9 km/h 96 % 0.01 in /  0.25 mm
06:39 48.5 °F /  9.2 °C 47.4 °F /  8.6 °C 30.06 in /  1017.8 hPa South 2.6 mph /  4.2 km/h 8.1 mph /  13 km/h 96 % 0.01 in /  0.25 mm
06:44 48.5 °F /  9.2 °C 47.4 °F /  8.6 °C 30.06 in /  1017.8 hPa SSW 5.0 mph /  8 km/h 8.0 mph /  12.9 km/h 96 % 0.00 in /  0 mm
06:49 48.5 °F /  9.2 °C 47.4 °F /  8.6 °C 30.06 in /  1017.8 hPa SW 5.0 mph /  8 km/h 10.0 mph /  16.1 km/h 96 % 0.00 in /  0 mm
06:54 48.6 °F /  9.2 °C 47.5 °F /  8.6 °C 30.06 in /  1017.8 hPa South 4.4 mph /  7.1 km/h 6.9 mph /  11.1 km/h 96 % 0.01 in /  0.25 mm
06:59 48.6 °F /  9.2 °C 47.5 °F /  8.6 °C 30.05 in /  1017.5 hPa SSW 4.5 mph /  7.2 km/h 6.0 mph /  9.7 km/h 96 % 0.01 in /  0.25 mm
07:04 48.7 °F /  9.3 °C 47.6 °F /  8.7 °C 30.06 in /  1017.8 hPa South 5.3 mph /  8.5 km/h 11.5 mph /  18.5 km/h 96 % 0.01 in /  0.25 mm
07:09 48.7 °F /  9.3 °C 47.6 °F /  8.7 °C 30.06 in /  1017.8 hPa SSW 2.0 mph /  3.2 km/h 10.0 mph /  16.1 km/h 96 % 0.00 in /  0 mm
07:14 48.8 °F /  9.3 °C 47.7 °F /  8.7 °C 30.06 in /  1017.8 hPa SSW 3.0 mph /  4.8 km/h 9.0 mph /  14.5 km/h 96 % 0.00 in /  0 mm
07:19 48.8 °F /  9.3 °C 47.7 °F /  8.7 °C 30.06 in /  1017.8 hPa SSW 6.0 mph /  9.7 km/h 9.0 mph /  14.5 km/h 96 % 0.00 in /  0 mm
07:24 48.8 °F /  9.3 °C 47.7 °F /  8.7 °C 30.06 in /  1017.8 hPa SSW 2.0 mph /  3.2 km/h 7.0 mph /  11.3 km/h 96 % 0.00 in /  0 mm
07:29 48.9 °F /  9.4 °C 47.8 °F /  8.8 °C 30.06 in /  1017.8 hPa South 3.5 mph /  5.6 km/h 6.9 mph /  11.1 km/h 96 % 0.00 in /  0 mm
07:34 48.9 °F /  9.4 °C 47.8 °F /  8.8 °C 30.06 in /  1017.8 hPa SW 5.0 mph /  8 km/h 10.0 mph /  16.1 km/h 96 % 0.00 in /  0 mm
07:39 49.0 °F /  9.4 °C 47.9 °F /  8.8 °C 30.06 in /  1017.8 hPa SW 1.0 mph /  1.6 km/h 6.0 mph /  9.7 km/h 96 % 0.00 in /  0 mm
07:44 49.0 °F /  9.4 °C 47.9 °F /  8.8 °C 30.06 in /  1017.8 hPa SSW 2.0 mph /  3.2 km/h 7.0 mph /  11.3 km/h 96 % 0.00 in /  0 mm
07:49 49.1 °F /  9.5 °C 48.0 °F /  8.9 °C 30.06 in /  1017.8 hPa SW 2.5 mph /  4 km/h 5.8 mph /  9.3 km/h 96 % 0.00 in /  0 mm
07:54 49.1 °F /  9.5 °C 48.0 °F /  8.9 °C 30.06 in /  1017.8 hPa SSW 5.0 mph /  8 km/h 7.0 mph /  11.3 km/h 96 % 0.00 in /  0 mm
07:59 49.2 °F /  9.6 °C 48.1 °F /  8.9 °C 30.06 in /  1017.8 hPa SSW 5.1 mph /  8.2 km/h 11.5 mph /  18.5 km/h 96 % 0.00 in /  0 mm
08:04 49.3 °F /  9.6 °C 48.2 °F /  9 °C 30.06 in /  1017.8 hPa SSW 5.0 mph /  8 km/h 11.5 mph /  18.5 km/h 96 % 0.00 in /  0 mm
08:09 49.4 °F /  9.7 °C 48.3 °F /  9.1 °C 30.05 in /  1017.5 hPa South 4.8 mph /  7.7 km/h 9.2 mph /  14.8 km/h 96 % 0.00 in /  0 mm
08:14 49.4 °F /  9.7 °C 48.3 °F /  9.1 °C 30.05 in /  1017.5 hPa SW 1.2 mph /  1.9 km/h 3.5 mph /  5.6 km/h 96 % 0.00 in /  0 mm
08:19 49.4 °F /  9.7 °C 48.3 °F /  9.1 °C 30.06 in /  1017.8 hPa SW 1.9 mph /  3.1 km/h 5.0 mph /  8 km/h 96 % 0.01 in /  0.25 mm
08:24 49.5 °F /  9.7 °C 48.4 °F /  9.1 °C 30.06 in /  1017.8 hPa South 2.2 mph /  3.5 km/h 7.0 mph /  11.3 km/h 96 % 0.01 in /  0.25 mm
08:29 49.7 °F /  9.8 °C 48.6 °F /  9.2 °C 30.06 in /  1017.8 hPa SSW 4.0 mph /  6.4 km/h 7.0 mph /  11.3 km/h 96 % 0.01 in /  0.25 mm
08:34 49.8 °F /  9.9 °C 48.7 °F /  9.3 °C 30.06 in /  1017.8 hPa South 2.8 mph /  4.5 km/h 4.6 mph /  7.4 km/h 96 % 0.01 in /  0.25 mm
08:39 49.9 °F /  9.9 °C 48.8 °F /  9.3 °C 30.06 in /  1017.8 hPa SSW 2.0 mph /  3.2 km/h 5.0 mph /  8 km/h 96 % 0.01 in /  0.25 mm
08:44 50.0 °F /  10 °C 48.9 °F /  9.4 °C 30.06 in /  1017.8 hPa South 4.5 mph /  7.2 km/h 10.4 mph /  16.7 km/h 96 % 0.01 in /  0.25 mm
08:50 50.1 °F /  10.1 °C 49.0 °F /  9.4 °C 30.06 in /  1017.8 hPa SW 4.5 mph /  7.2 km/h 6.0 mph /  9.7 km/h 96 % 0.01 in /  0.25 mm
08:55 50.3 °F /  10.2 °C 49.2 °F /  9.6 °C 30.06 in /  1017.8 hPa SSW 2.5 mph /  4 km/h 6.9 mph /  11.1 km/h 96 % 0.01 in /  0.25 mm
09:00 50.4 °F /  10.2 °C 49.3 °F /  9.6 °C 30.06 in /  1017.8 hPa SSW 2.6 mph /  4.2 km/h 4.6 mph /  7.4 km/h 96 % 0.01 in /  0.25 mm
09:05 50.5 °F /  10.3 °C 49.4 °F /  9.7 °C 30.06 in /  1017.8 hPa West 0.4 mph /  0.6 km/h 5.8 mph /  9.3 km/h 96 % 0.01 in /  0.25 mm
09:10 50.7 °F /  10.4 °C 49.6 °F /  9.8 °C 30.06 in /  1017.8 hPa SSW 1.9 mph /  3.1 km/h 4.6 mph /  7.4 km/h 96 % 0.01 in /  0.25 mm
09:15 50.9 °F /  10.5 °C 49.8 °F /  9.9 °C 30.06 in /  1017.8 hPa SW 4.7 mph /  7.6 km/h 8.1 mph /  13 km/h 96 % 0.01 in /  0.25 mm
09:20 51.1 °F /  10.6 °C 50.0 °F /  10 °C 30.06 in /  1017.8 hPa SSW 3.4 mph /  5.5 km/h 8.1 mph /  13 km/h 96 % 0.00 in /  0 mm
09:25 51.2 °F /  10.7 °C 50.1 °F /  10.1 °C 30.06 in /  1017.8 hPa SSW 4.4 mph /  7.1 km/h 8.1 mph /  13 km/h 96 % 0.00 in /  0 mm
09:30 51.4 °F /  10.8 °C 50.3 °F /  10.2 °C 30.06 in /  1017.8 hPa SW 3.4 mph /  5.5 km/h 4.0 mph /  6.4 km/h 96 % 0.00 in /  0 mm
09:35 51.7 °F /  10.9 °C 50.6 °F /  10.3 °C 30.06 in /  1017.8 hPa SW 3.0 mph /  4.8 km/h 5.0 mph /  8 km/h 96 % 0.00 in /  0 mm
09:40 51.9 °F /  11.1 °C 50.8 °F /  10.4 °C 30.06 in /  1017.8 hPa WSW 2.3 mph /  3.7 km/h 6.9 mph /  11.1 km/h 96 % 0.00 in /  0 mm
09:45 52.1 °F /  11.2 °C 51.0 °F /  10.6 °C 30.05 in /  1017.5 hPa SW 2.6 mph /  4.2 km/h 7.0 mph /  11.3 km/h 96 % 0.00 in /  0 mm
09:50 52.3 °F /  11.3 °C 51.2 °F /  10.7 °C 30.05 in /  1017.5 hPa SSW 5.0 mph /  8 km/h 9.2 mph /  14.8 km/h 96 % 0.00 in /  0 mm
09:55 52.6 °F /  11.4 °C 51.2 °F /  10.7 °C 30.05 in /  1017.5 hPa WSW 4.9 mph /  7.9 km/h 9.0 mph /  14.5 km/h 95 % 0.00 in /  0 mm
10:00 52.8 °F /  11.6 °C 51.4 °F /  10.8 °C 30.05 in /  1017.5 hPa SSW 3.4 mph /  5.5 km/h 8.1 mph /  13 km/h 95 % 0.00 in /  0 mm
10:05 53.0 °F /  11.7 °C 51.6 °F /  10.9 °C 30.05 in /  1017.5 hPa SW 4.8 mph /  7.7 km/h 9.2 mph /  14.8 km/h 95 % 0.00 in /  0 mm
10:10 53.1 °F /  11.7 °C 51.7 °F /  10.9 °C 30.05 in /  1017.5 hPa SSW 4.8 mph /  7.7 km/h 6.9 mph /  11.1 km/h 95 % 0.00 in /  0 mm
10:15 53.3 °F /  11.8 °C 51.6 °F /  10.9 °C 30.04 in /  1017.2 hPa SW 5.4 mph /  8.7 km/h 9.2 mph /  14.8 km/h 94 % 0.00 in /  0 mm
10:20 53.4 °F /  11.9 °C 51.7 °F /  10.9 °C 30.04 in /  1017.2 hPa South 4.0 mph /  6.4 km/h 11.5 mph /  18.5 km/h 94 % 0.00 in /  0 mm
10:25 53.6 °F /  12 °C 51.9 °F /  11.1 °C 30.04 in /  1017.2 hPa SW 1.7 mph /  2.7 km/h 3.5 mph /  5.6 km/h 94 % 0.00 in /  0 mm
10:30 53.8 °F /  12.1 °C 51.8 °F /  11 °C 30.04 in /  1017.2 hPa WSW 4.1 mph /  6.6 km/h 8.1 mph /  13 km/h 93 % 0.00 in /  0 mm
10:35 54.1 °F /  12.3 °C 52.1 °F /  11.2 °C 30.03 in /  1016.8 hPa South 4.5 mph /  7.2 km/h 9.0 mph /  14.5 km/h 93 % 0.00 in /  0 mm
10:40 54.2 °F /  12.3 °C 51.9 °F /  11.1 °C 30.03 in /  1016.8 hPa WSW 5.2 mph /  8.4 km/h 9.2 mph /  14.8 km/h 92 % 0.00 in /  0 mm
10:41 54.3 °F /  12.4 °C 52.0 °F /  11.1 °C 30.03 in /  1016.8 hPa SSW 6.2 mph /  10 km/h 11.0 mph /  17.7 km/h 92 % 0.00 in /  0 mm
10:46 54.6 °F /  12.6 °C 52.3 °F /  11.3 °C 30.02 in /  1016.5 hPa WSW 3.1 mph /  5 km/h 7.0 mph /  11.3 km/h 92 % 0.00 in /  0 mm
10:51 54.9 °F /  12.7 °C 52.6 °F /  11.4 °C 30.03 in /  1016.8 hPa SW 6.9 mph /  11.1 km/h 10.4 mph /  16.7 km/h 92 % 0.00 in /  0 mm
10:56 55.3 °F /  12.9 °C 52.7 °F /  11.5 °C 30.02 in /  1016.5 hPa WSW 5.2 mph /  8.4 km/h 6.9 mph /  11.1 km/h 91 % 0.00 in /  0 mm
11:01 55.7 °F /  13.2 °C 53.1 °F /  11.7 °C 30.02 in /  1016.5 hPa SW 5.0 mph /  8 km/h 5.0 mph /  8 km/h 91 % 0.00 in /  0 mm
11:06 56.2 °F /  13.4 °C 53.3 °F /  11.8 °C 30.02 in /  1016.5 hPa WSW 3.7 mph /  6 km/h 5.8 mph /  9.3 km/h 90 % 0.00 in /  0 mm
11:11 56.6 °F /  13.7 °C 53.7 °F /  12.1 °C 30.02 in /  1016.5 hPa SSW 6.5 mph /  10.5 km/h 11.5 mph /  18.5 km/h 90 % 0.00 in /  0 mm
11:16 57.0 °F /  13.9 °C 53.8 °F /  12.1 °C 30.01 in /  1016.1 hPa SW 3.7 mph /  6 km/h 6.9 mph /  11.1 km/h 89 % 0.00 in /  0 mm
11:21 57.5 °F /  14.2 °C 54.0 °F /  12.2 °C 30.01 in /  1016.1 hPa WSW 5.9 mph /  9.5 km/h 8.0 mph /  12.9 km/h 88 % 0.00 in /  0 mm
11:26 57.8 °F /  14.3 °C 54.0 °F /  12.2 °C 30.01 in /  1016.1 hPa SSW 8.6 mph /  13.8 km/h 12.7 mph /  20.4 km/h 87 % 0.00 in /  0 mm
11:31 58.0 °F /  14.4 °C 53.8 °F /  12.1 °C 30.01 in /  1016.1 hPa West 8.3 mph /  13.4 km/h 14.0 mph /  22.5 km/h 86 % 0.00 in /  0 mm
11:36 58.1 °F /  14.5 °C 53.9 °F /  12.2 °C 30.01 in /  1016.1 hPa SW 0.9 mph /  1.4 km/h 2.0 mph /  3.2 km/h 86 % 0.00 in /  0 mm
11:41 58.2 °F /  14.6 °C 54.0 °F /  12.2 °C 30.01 in /  1016.1 hPa WSW 9.1 mph /  14.6 km/h 12.7 mph /  20.4 km/h 86 % 0.01 in /  0.25 mm
11:46 58.4 °F /  14.7 °C 53.9 °F /  12.2 °C 30.01 in /  1016.1 hPa SSW 4.3 mph /  6.9 km/h 8.1 mph /  13 km/h 85 % 0.01 in /  0.25 mm
11:52 58.6 °F /  14.8 °C 54.1 °F /  12.3 °C 30.00 in /  1015.8 hPa South 6.2 mph /  10 km/h 12.7 mph /  20.4 km/h 85 % 0.01 in /  0.25 mm
11:57 59.0 °F /  15 °C 54.5 °F /  12.5 °C 30.00 in /  1015.8 hPa SW 5.0 mph /  8 km/h 11.5 mph /  18.5 km/h 85 % 0.01 in /  0.25 mm
12:02 59.6 °F /  15.3 °C 55.1 °F /  12.8 °C 29.99 in /  1015.5 hPa SW 7.0 mph /  11.3 km/h 15.0 mph /  24.1 km/h 85 % 0.01 in /  0.25 mm
12:07 60.0 °F /  15.6 °C 55.2 °F /  12.9 °C 29.99 in /  1015.5 hPa SSW 6.6 mph /  10.6 km/h 23.0 mph /  37 km/h 84 % 0.01 in /  0.25 mm
12:12 60.3 °F /  15.7 °C 55.1 °F /  12.8 °C 29.99 in /  1015.5 hPa SW 9.5 mph /  15.3 km/h 11.5 mph /  18.5 km/h 83 % 0.01 in /  0.25 mm
12:17 60.5 °F /  15.8 °C 55.0 °F /  12.8 °C 29.98 in /  1015.1 hPa SW 10.7 mph /  17.2 km/h 16.0 mph /  25.7 km/h 82 % 0.01 in /  0.25 mm
12:22 60.6 °F /  15.9 °C 55.1 °F /  12.8 °C 29.98 in /  1015.1 hPa West 5.3 mph /  8.5 km/h 14.0 mph /  22.5 km/h 82 % 0.01 in /  0.25 mm
12:27 60.6 °F /  15.9 °C 54.7 °F /  12.6 °C 29.98 in /  1015.1 hPa WSW 6.5 mph /  10.5 km/h 10.4 mph /  16.7 km/h 81 % 0.01 in /  0.25 mm
12:32 60.7 °F /  15.9 °C 54.8 °F /  12.7 °C 29.98 in /  1015.1 hPa SSW 6.1 mph /  9.8 km/h 16.1 mph /  25.9 km/h 81 % 0.01 in /  0.25 mm
12:37 60.9 °F /  16.1 °C 55.0 °F /  12.8 °C 29.97 in /  1014.8 hPa SSW 5.6 mph /  9 km/h 11.5 mph /  18.5 km/h 81 % 0.01 in /  0.25 mm
12:42 61.1 °F /  16.2 °C 55.2 °F /  12.9 °C 29.96 in /  1014.4 hPa SW 7.5 mph /  12.1 km/h 10.4 mph /  16.7 km/h 81 % 0.00 in /  0 mm
12:47 61.2 °F /  16.2 °C 55.0 °F /  12.8 °C 29.95 in /  1014.1 hPa WSW 5.2 mph /  8.4 km/h 10.4 mph /  16.7 km/h 80 % 0.00 in /  0 mm
12:52 61.3 °F /  16.3 °C 55.1 °F /  12.8 °C 29.95 in /  1014.1 hPa SW 1.9 mph /  3.1 km/h 3.5 mph /  5.6 km/h 80 % 0.00 in /  0 mm
12:57 61.3 °F /  16.3 °C 55.4 °F /  13 °C 29.95 in /  1014.1 hPa SW 1.6 mph /  2.6 km/h 8.0 mph /  12.9 km/h 81 % 0.00 in /  0 mm
13:02 61.6 °F /  16.4 °C 55.7 °F /  13.2 °C 29.97 in /  1014.8 hPa SSW 3.9 mph /  6.3 km/h 6.9 mph /  11.1 km/h 81 % 0.00 in /  0 mm
13:07 62.1 °F /  16.7 °C 55.9 °F /  13.3 °C 29.96 in /  1014.4 hPa SW 2.7 mph /  4.3 km/h 8.0 mph /  12.9 km/h 80 % 0.00 in /  0 mm
13:12 62.6 °F /  17 °C 55.6 °F /  13.1 °C 29.96 in /  1014.4 hPa South 8.3 mph /  13.4 km/h 11.5 mph /  18.5 km/h 78 % 0.00 in /  0 mm
13:17 62.9 °F /  17.2 °C 55.6 °F /  13.1 °C 29.95 in /  1014.1 hPa SSW 3.6 mph /  5.8 km/h 6.9 mph /  11.1 km/h 77 % 0.00 in /  0 mm
13:23 62.9 °F /  17.2 °C 55.2 °F /  12.9 °C 29.95 in /  1014.1 hPa SSW 6.7 mph /  10.8 km/h 11.5 mph /  18.5 km/h 76 % 0.00 in /  0 mm
13:28 62.8 °F /  17.1 °C 55.5 °F /  13.1 °C 29.95 in /  1014.1 hPa SW 3.6 mph /  5.8 km/h 9.0 mph /  14.5 km/h 77 % 0.00 in /  0 mm
13:33 62.9 °F /  17.2 °C 55.2 °F /  12.9 °C 29.94 in /  1013.8 hPa SW 4.3 mph /  6.9 km/h 9.0 mph /  14.5 km/h 76 % 0.00 in /  0 mm
13:38 63.1 °F /  17.3 °C 55.4 °F /  13 °C 29.94 in /  1013.8 hPa SSW 7.1 mph /  11.4 km/h 9.0 mph /  14.5 km/h 76 % 0.00 in /  0 mm
13:43 63.3 °F /  17.4 °C 55.6 °F /  13.1 °C 29.95 in /  1014.1 hPa SW 3.5 mph /  5.6 km/h 8.1 mph /  13 km/h 76 % 0.00 in /  0 mm
13:48 63.5 °F /  17.5 °C 55.4 °F /  13 °C 29.95 in /  1014.1 hPa SW 8.5 mph /  13.7 km/h 12.0 mph /  19.3 km/h 75 % 0.00 in /  0 mm
13:53 63.7 °F /  17.6 °C 55.6 °F /  13.1 °C 29.94 in /  1013.8 hPa SSW 4.8 mph /  7.7 km/h 9.2 mph /  14.8 km/h 75 % 0.00 in /  0 mm
13:58 63.9 °F /  17.7 °C 55.8 °F /  13.2 °C 29.95 in /  1014.1 hPa NW 0.6 mph /  1 km/h 8.1 mph /  13 km/h 75 % 0.00 in /  0 mm
14:03 64.0 °F /  17.8 °C 55.9 °F /  13.3 °C 29.95 in /  1014.1 hPa WSW 7.3 mph /  11.7 km/h 10.4 mph /  16.7 km/h 75 % 0.00 in /  0 mm
14:08 64.0 °F /  17.8 °C 55.9 °F /  13.3 °C 29.95 in /  1014.1 hPa South 4.3 mph /  6.9 km/h 5.8 mph /  9.3 km/h 75 % 0.00 in /  0 mm
14:13 64.0 °F /  17.8 °C 55.5 °F /  13.1 °C 29.95 in /  1014.1 hPa SW 2.6 mph /  4.2 km/h 6.9 mph /  11.1 km/h 74 % 0.00 in /  0 mm
14:18 64.0 °F /  17.8 °C 55.9 °F /  13.3 °C 29.95 in /  1014.1 hPa WSW 3.0 mph /  4.8 km/h 4.0 mph /  6.4 km/h 75 % 0.00 in /  0 mm
14:23 64.0 °F /  17.8 °C 55.5 °F /  13.1 °C 29.95 in /  1014.1 hPa WSW 5.8 mph /  9.3 km/h 10.4 mph /  16.7 km/h 74 % 0.00 in /  0 mm
14:28 63.9 °F /  17.7 °C 55.1 °F /  12.8 °C 29.95 in /  1014.1 hPa SSW 8.6 mph /  13.8 km/h 12.7 mph /  20.4 km/h 73 % 0.00 in /  0 mm
14:34 63.7 °F /  17.6 °C 55.3 °F /  12.9 °C 29.94 in /  1013.8 hPa SSE 3.5 mph /  5.6 km/h 6.0 mph /  9.7 km/h 74 % 0.00 in /  0 mm
14:39 63.6 °F /  17.6 °C 55.2 °F /  12.9 °C 29.94 in /  1013.8 hPa South 1.8 mph /  2.9 km/h 3.5 mph /  5.6 km/h 74 % 0.00 in /  0 mm
14:44 63.4 °F /  17.4 °C 55.0 °F /  12.8 °C 29.93 in /  1013.4 hPa SSW 3.8 mph /  6.1 km/h 8.1 mph /  13 km/h 74 % 0.00 in /  0 mm
14:49 63.1 °F /  17.3 °C 54.7 °F /  12.6 °C 29.93 in /  1013.4 hPa South 0.3 mph /  0.5 km/h 3.5 mph /  5.6 km/h 74 % 0.00 in /  0 mm
14:54 62.9 °F /  17.2 °C 54.5 °F /  12.5 °C 29.94 in /  1013.8 hPa SSW 2.1 mph /  3.4 km/h 3.5 mph /  5.6 km/h 74 % 0.00 in /  0 mm
14:59 62.7 °F /  17.1 °C 54.3 °F /  12.4 °C 29.94 in /  1013.8 hPa SW 5.8 mph /  9.3 km/h 10.4 mph /  16.7 km/h 74 % 0.00 in /  0 mm
15:04 62.5 °F /  16.9 °C 54.1 °F /  12.3 °C 29.93 in /  1013.4 hPa SSW 6.0 mph /  9.7 km/h 12.0 mph /  19.3 km/h 74 % 0.00 in /  0 mm
15:09 62.2 °F /  16.8 °C 53.8 °F /  12.1 °C 29.94 in /  1013.8 hPa SSW 5.0 mph /  8 km/h 9.0 mph /  14.5 km/h 74 % 0.00 in /  0 mm
15:14 61.9 °F /  16.6 °C 53.9 °F /  12.2 °C 29.94 in /  1013.8 hPa SSW 3.0 mph /  4.8 km/h 12.0 mph /  19.3 km/h 75 % 0.00 in /  0 mm
15:19 61.7 °F /  16.5 °C 53.7 °F /  12.1 °C 29.93 in /  1013.4 hPa SSW 5.6 mph /  9 km/h 7.0 mph /  11.3 km/h 75 % 0.00 in /  0 mm
15:24 61.7 °F /  16.5 °C 53.7 °F /  12.1 °C 29.94 in /  1013.8 hPa SSW 1.0 mph /  1.6 km/h 8.0 mph /  12.9 km/h 75 % 0.00 in /  0 mm
15:29 61.6 °F /  16.4 °C 53.6 °F /  12 °C 29.95 in /  1014.1 hPa SSW 2.0 mph /  3.2 km/h 7.0 mph /  11.3 km/h 75 % 0.00 in /  0 mm
15:34 61.5 °F /  16.4 °C 53.5 °F /  11.9 °C 29.96 in /  1014.4 hPa SSW 5.0 mph /  8 km/h 8.0 mph /  12.9 km/h 75 % 0.00 in /  0 mm
15:39 61.4 °F /  16.3 °C 53.4 °F /  11.9 °C 29.96 in /  1014.4 hPa SW 6.0 mph /  9.7 km/h 12.0 mph /  19.3 km/h 75 % 0.00 in /  0 mm
15:44 61.2 °F /  16.2 °C 53.2 °F /  11.8 °C 29.94 in /  1013.8 hPa South 3.8 mph /  6.1 km/h 6.9 mph /  11.1 km/h 75 % 0.00 in /  0 mm
15:49 61.1 °F /  16.2 °C 53.5 °F /  11.9 °C 29.93 in /  1013.4 hPa South 2.0 mph /  3.2 km/h 6.0 mph /  9.7 km/h 76 % 0.00 in /  0 mm
15:54 60.9 °F /  16.1 °C 53.3 °F /  11.8 °C 29.93 in /  1013.4 hPa South 6.0 mph /  9.7 km/h 12.0 mph /  19.3 km/h 76 % 0.00 in /  0 mm
15:59 60.5 °F /  15.8 °C 52.9 °F /  11.6 °C 29.93 in /  1013.4 hPa SSW 3.1 mph /  5 km/h 6.0 mph /  9.7 km/h 76 % 0.00 in /  0 mm
16:04 60.2 °F /  15.7 °C 52.6 °F /  11.4 °C 29.94 in /  1013.8 hPa SSW 3.0 mph /  4.8 km/h 10.0 mph /  16.1 km/h 76 % 0.00 in /  0 mm
16:09 59.9 °F /  15.5 °C 52.3 °F /  11.3 °C 29.94 in /  1013.8 hPa SSW 6.0 mph /  9.7 km/h 12.0 mph /  19.3 km/h 76 % 0.00 in /  0 mm
16:14 59.5 °F /  15.3 °C 52.2 °F /  11.2 °C 29.95 in /  1014.1 hPa SSW 3.0 mph /  4.8 km/h 10.0 mph /  16.1 km/h 77 % 0.00 in /  0 mm
16:19 59.0 °F /  15 °C 51.8 °F /  11 °C 29.95 in /  1014.1 hPa South 8.6 mph /  13.8 km/h 11.0 mph /  17.7 km/h 77 % 0.00 in /  0 mm
16:24 58.7 °F /  14.8 °C 51.8 °F /  11 °C 29.96 in /  1014.4 hPa SW 3.0 mph /  4.8 km/h 12.0 mph /  19.3 km/h 78 % 0.00 in /  0 mm
16:29 58.4 °F /  14.7 °C 51.5 °F /  10.8 °C 29.96 in /  1014.4 hPa SSW 3.0 mph /  4.8 km/h 12.0 mph /  19.3 km/h 78 % 0.00 in /  0 mm
16:34 58.0 °F /  14.4 °C 51.1 °F /  10.6 °C 29.96 in /  1014.4 hPa SSW 2.0 mph /  3.2 km/h 7.0 mph /  11.3 km/h 78 % 0.00 in /  0 mm
16:39 57.6 °F /  14.2 °C 51.1 °F /  10.6 °C 29.96 in /  1014.4 hPa SSW 2.0 mph /  3.2 km/h 8.0 mph /  12.9 km/h 79 % 0.00 in /  0 mm
16:44 57.3 °F /  14.1 °C 50.9 °F /  10.5 °C 29.95 in /  1014.1 hPa SSW 2.0 mph /  3.2 km/h 6.0 mph /  9.7 km/h 79 % 0.00 in /  0 mm
16:54 56.7 °F /  13.7 °C 50.6 °F /  10.3 °C 29.95 in /  1014.1 hPa SSW 5.0 mph /  8 km/h 8.0 mph /  12.9 km/h 80 % 0.00 in /  0 mm
16:59 56.3 °F /  13.5 °C 50.5 °F /  10.3 °C 29.94 in /  1013.8 hPa South 3.1 mph /  5 km/h 5.8 mph /  9.3 km/h 81 % 0.00 in /  0 mm
17:04 56.0 °F /  13.3 °C 50.3 °F /  10.2 °C 29.95 in /  1014.1 hPa South 3.0 mph /  4.8 km/h 12.0 mph /  19.3 km/h 81 % 0.00 in /  0 mm
17:09 55.8 °F /  13.2 °C 50.4 °F /  10.2 °C 29.95 in /  1014.1 hPa SSW 6.0 mph /  9.7 km/h 8.0 mph /  12.9 km/h 82 % 0.00 in /  0 mm
17:14 55.6 °F /  13.1 °C 50.2 °F /  10.1 °C 29.95 in /  1014.1 hPa SSW 3.0 mph /  4.8 km/h 13.0 mph /  20.9 km/h 82 % 0.00 in /  0 mm
17:19 55.4 °F /  13 °C 50.0 °F /  10 °C 29.95 in /  1014.1 hPa SSW 3.0 mph /  4.8 km/h 7.0 mph /  11.3 km/h 82 % 0.00 in /  0 mm
17:24 55.3 °F /  12.9 °C 50.2 °F /  10.1 °C 29.95 in /  1014.1 hPa SSW 6.0 mph /  9.7 km/h 10.0 mph /  16.1 km/h 83 % 0.00 in /  0 mm
17:29 55.2 °F /  12.9 °C 50.1 °F /  10.1 °C 29.95 in /  1014.1 hPa South 5.8 mph /  9.3 km/h 9.2 mph /  14.8 km/h 83 % 0.00 in /  0 mm
17:34 55.2 °F /  12.9 °C 50.1 °F /  10.1 °C 29.95 in /  1014.1 hPa SSW 6.0 mph /  9.7 km/h 12.0 mph /  19.3 km/h 83 % 0.00 in /  0 mm
17:39 55.1 °F /  12.8 °C 50.4 °F /  10.2 °C 29.94 in /  1013.8 hPa SSW 6.0 mph /  9.7 km/h 13.0 mph /  20.9 km/h 84 % 0.00 in /  0 mm
17:44 55.2 °F /  12.9 °C 50.4 °F /  10.2 °C 29.94 in /  1013.8 hPa SSW 7.0 mph /  11.3 km/h 12.0 mph /  19.3 km/h 84 % 0.00 in /  0 mm
17:49 55.3 °F /  12.9 °C 50.5 °F /  10.3 °C 29.95 in /  1014.1 hPa South 5.5 mph /  8.9 km/h 10.4 mph /  16.7 km/h 84 % 0.00 in /  0 mm
17:54 55.5 °F /  13.1 °C 50.4 °F /  10.2 °C 29.95 in /  1014.1 hPa SSW 6.0 mph /  9.7 km/h 10.0 mph /  16.1 km/h 83 % 0.00 in /  0 mm
17:59 55.5 °F /  13.1 °C 50.4 °F /  10.2 °C 29.95 in /  1014.1 hPa SW 6.2 mph /  10 km/h 13.8 mph /  22.2 km/h 83 % 0.00 in /  0 mm
18:04 55.5 °F /  13.1 °C 50.4 °F /  10.2 °C 29.95 in /  1014.1 hPa SSW 6.3 mph /  10.1 km/h 11.5 mph /  18.5 km/h 83 % 0.00 in /  0 mm
18:09 55.5 °F /  13.1 °C 50.4 °F /  10.2 °C 29.95 in /  1014.1 hPa SSW 4.1 mph /  6.6 km/h 8.1 mph /  13 km/h 83 % 0.00 in /  0 mm
18:14 55.5 °F /  13.1 °C 50.4 °F /  10.2 °C 29.96 in /  1014.4 hPa SSW 3.7 mph /  6 km/h 7.0 mph /  11.3 km/h 83 % 0.00 in /  0 mm
18:19 55.5 °F /  13.1 °C 50.4 °F /  10.2 °C 29.95 in /  1014.1 hPa SW 6.1 mph /  9.8 km/h 11.5 mph /  18.5 km/h 83 % 0.00 in /  0 mm
18:24 55.6 °F /  13.1 °C 50.8 °F /  10.4 °C 29.96 in /  1014.4 hPa SSW 6.4 mph /  10.3 km/h 12.7 mph /  20.4 km/h 84 % 0.00 in /  0 mm
18:29 55.7 °F /  13.2 °C 50.6 °F /  10.3 °C 29.96 in /  1014.4 hPa SSW 7.2 mph /  11.6 km/h 11.5 mph /  18.5 km/h 83 % 0.00 in /  0 mm
18:34 55.9 °F /  13.3 °C 50.8 °F /  10.4 °C 29.96 in /  1014.4 hPa SSW 5.2 mph /  8.4 km/h 13.8 mph /  22.2 km/h 83 % 0.00 in /  0 mm
18:39 56.0 °F /  13.3 °C 50.9 °F /  10.5 °C 29.96 in /  1014.4 hPa South 4.4 mph /  7.1 km/h 9.2 mph /  14.8 km/h 83 % 0.00 in /  0 mm
18:44 56.1 °F /  13.4 °C 51.0 °F /  10.6 °C 29.97 in /  1014.8 hPa SSW 7.0 mph /  11.3 km/h 15.0 mph /  24.1 km/h 83 % 0.00 in /  0 mm
18:49 56.2 °F /  13.4 °C 51.1 °F /  10.6 °C 29.97 in /  1014.8 hPa SSW 6.2 mph /  10 km/h 8.1 mph /  13 km/h 83 % 0.00 in /  0 mm
18:54 56.3 °F /  13.5 °C 51.2 °F /  10.7 °C 29.98 in /  1015.1 hPa South 4.6 mph /  7.4 km/h 8.1 mph /  13 km/h 83 % 0.00 in /  0 mm
19:00 56.4 °F /  13.6 °C 51.3 °F /  10.7 °C 29.98 in /  1015.1 hPa South 5.9 mph /  9.5 km/h 11.5 mph /  18.5 km/h 83 % 0.00 in /  0 mm
19:05 56.5 °F /  13.6 °C 51.4 °F /  10.8 °C 29.98 in /  1015.1 hPa SW 4.6 mph /  7.4 km/h 6.9 mph /  11.1 km/h 83 % 0.00 in /  0 mm
19:10 56.5 °F /  13.6 °C 51.4 °F /  10.8 °C 29.98 in /  1015.1 hPa SW 5.7 mph /  9.2 km/h 7.0 mph /  11.3 km/h 83 % 0.00 in /  0 mm
19:15 56.6 °F /  13.7 °C 51.5 °F /  10.8 °C 29.99 in /  1015.5 hPa SW 4.9 mph /  7.9 km/h 9.0 mph /  14.5 km/h 83 % 0.00 in /  0 mm
19:20 56.6 °F /  13.7 °C 51.5 °F /  10.8 °C 29.99 in /  1015.5 hPa SSW 5.3 mph /  8.5 km/h 5.8 mph /  9.3 km/h 83 % 0.00 in /  0 mm
19:25 56.8 °F /  13.8 °C 51.7 °F /  10.9 °C 29.99 in /  1015.5 hPa South 4.9 mph /  7.9 km/h 11.5 mph /  18.5 km/h 83 % 0.00 in /  0 mm
19:30 56.9 °F /  13.8 °C 51.8 °F /  11 °C 29.99 in /  1015.5 hPa SSW 3.6 mph /  5.8 km/h 5.8 mph /  9.3 km/h 83 % 0.00 in /  0 mm
19:35 56.9 °F /  13.8 °C 51.8 °F /  11 °C 29.99 in /  1015.5 hPa SSW 5.3 mph /  8.5 km/h 6.9 mph /  11.1 km/h 83 % 0.00 in /  0 mm
19:40 57.0 °F /  13.9 °C 51.9 °F /  11.1 °C 29.99 in /  1015.5 hPa SSE 4.5 mph /  7.2 km/h 8.1 mph /  13 km/h 83 % 0.00 in /  0 mm
19:45 57.0 °F /  13.9 °C 51.9 °F /  11.1 °C 29.98 in /  1015.1 hPa WSW 6.5 mph /  10.5 km/h 15.0 mph /  24.1 km/h 83 % 0.00 in /  0 mm
19:50 57.1 °F /  13.9 °C 52.0 °F /  11.1 °C 29.98 in /  1015.1 hPa SW 4.6 mph /  7.4 km/h 8.0 mph /  12.9 km/h 83 % 0.00 in /  0 mm
19:55 57.1 °F /  13.9 °C 52.0 °F /  11.1 °C 29.99 in /  1015.5 hPa SSW 7.1 mph /  11.4 km/h 10.4 mph /  16.7 km/h 83 % 0.00 in /  0 mm
20:01 57.2 °F /  14 °C 52.1 °F /  11.2 °C 30.00 in /  1015.8 hPa SSW 6.8 mph /  10.9 km/h 11.0 mph /  17.7 km/h 83 % 0.00 in /  0 mm
20:06 57.2 °F /  14 °C 52.1 °F /  11.2 °C 30.00 in /  1015.8 hPa SSW 5.4 mph /  8.7 km/h 8.1 mph /  13 km/h 83 % 0.00 in /  0 mm
20:11 57.2 °F /  14 °C 52.1 °F /  11.2 °C 30.01 in /  1016.1 hPa SSW 4.6 mph /  7.4 km/h 9.2 mph /  14.8 km/h 83 % 0.00 in /  0 mm
20:16 57.2 °F /  14 °C 52.1 °F /  11.2 °C 30.00 in /  1015.8 hPa South 4.8 mph /  7.7 km/h 9.2 mph /  14.8 km/h 83 % 0.00 in /  0 mm
20:21 57.2 °F /  14 °C 52.1 °F /  11.2 °C 30.01 in /  1016.1 hPa SW 4.4 mph /  7.1 km/h 11.5 mph /  18.5 km/h 83 % 0.00 in /  0 mm
20:26 57.2 °F /  14 °C 52.1 °F /  11.2 °C 30.01 in /  1016.1 hPa SSW 5.6 mph /  9 km/h 8.1 mph /  13 km/h 83 % 0.00 in /  0 mm
20:31 57.3 °F /  14.1 °C 52.2 °F /  11.2 °C 30.01 in /  1016.1 hPa SSW 4.7 mph /  7.6 km/h 10.4 mph /  16.7 km/h 83 % 0.00 in /  0 mm
20:36 57.3 °F /  14.1 °C 52.2 °F /  11.2 °C 30.01 in /  1016.1 hPa WSW 2.9 mph /  4.7 km/h 5.8 mph /  9.3 km/h 83 % 0.00 in /  0 mm
20:41 57.4 °F /  14.1 °C 52.3 °F /  11.3 °C 30.01 in /  1016.1 hPa SSW 1.0 mph /  1.6 km/h 5.8 mph /  9.3 km/h 83 % 0.00 in /  0 mm
20:46 57.5 °F /  14.2 °C 52.4 °F /  11.3 °C 30.01 in /  1016.1 hPa SSW 6.9 mph /  11.1 km/h 10.4 mph /  16.7 km/h 83 % 0.00 in /  0 mm
20:51 57.7 °F /  14.3 °C 52.2 °F /  11.2 °C 30.01 in /  1016.1 hPa SSW 4.3 mph /  6.9 km/h 9.2 mph /  14.8 km/h 82 % 0.00 in /  0 mm
20:56 57.7 °F /  14.3 °C 52.2 °F /  11.2 °C 30.01 in /  1016.1 hPa SSW 3.2 mph /  5.1 km/h 6.9 mph /  11.1 km/h 82 % 0.00 in /  0 mm
21:01 57.8 °F /  14.3 °C 52.3 °F /  11.3 °C 30.01 in /  1016.1 hPa SW 3.5 mph /  5.6 km/h 4.6 mph /  7.4 km/h 82 % 0.00 in /  0 mm
21:06 57.8 °F /  14.3 °C 52.3 °F /  11.3 °C 30.01 in /  1016.1 hPa SSW 5.0 mph /  8 km/h 6.9 mph /  11.1 km/h 82 % 0.00 in /  0 mm
21:11 57.9 °F /  14.4 °C 52.4 °F /  11.3 °C 30.00 in /  1015.8 hPa SSW 5.2 mph /  8.4 km/h 7.0 mph /  11.3 km/h 82 % 0.00 in /  0 mm
21:17 58.0 °F /  14.4 °C 52.5 °F /  11.4 °C 30.00 in /  1015.8 hPa SSW 4.3 mph /  6.9 km/h 9.0 mph /  14.5 km/h 82 % 0.00 in /  0 mm
21:22 58.1 °F /  14.5 °C 52.6 °F /  11.4 °C 30.01 in /  1016.1 hPa SSW 4.0 mph /  6.4 km/h 7.0 mph /  11.3 km/h 82 % 0.00 in /  0 mm
21:27 58.1 °F /  14.5 °C 52.6 °F /  11.4 °C 30.01 in /  1016.1 hPa SSW 5.0 mph /  8 km/h 5.8 mph /  9.3 km/h 82 % 0.00 in /  0 mm
21:32 58.2 °F /  14.6 °C 52.7 °F /  11.5 °C 30.00 in /  1015.8 hPa SSW 2.8 mph /  4.5 km/h 6.9 mph /  11.1 km/h 82 % 0.00 in /  0 mm
21:37 58.2 °F /  14.6 °C 52.7 °F /  11.5 °C 30.01 in /  1016.1 hPa SW 1.9 mph /  3.1 km/h 5.0 mph /  8 km/h 82 % 0.00 in /  0 mm
21:42 58.2 °F /  14.6 °C 52.7 °F /  11.5 °C 30.02 in /  1016.5 hPa SSW 4.1 mph /  6.6 km/h 6.0 mph /  9.7 km/h 82 % 0.00 in /  0 mm
21:47 58.3 °F /  14.6 °C 52.8 °F /  11.6 °C 30.02 in /  1016.5 hPa SW 2.8 mph /  4.5 km/h 3.5 mph /  5.6 km/h 82 % 0.00 in /  0 mm
21:52 58.3 °F /  14.6 °C 52.5 °F /  11.4 °C 30.01 in /  1016.1 hPa WSW 2.8 mph /  4.5 km/h 5.0 mph /  8 km/h 81 % 0.00 in /  0 mm
21:57 58.2 °F /  14.6 °C 52.4 °F /  11.3 °C 30.01 in /  1016.1 hPa WSW 1.3 mph /  2.1 km/h 3.5 mph /  5.6 km/h 81 % 0.00 in /  0 mm
22:02 58.2 °F /  14.6 °C 52.4 °F /  11.3 °C 30.01 in /  1016.1 hPa SSW 2.7 mph /  4.3 km/h 3.5 mph /  5.6 km/h 81 % 0.00 in /  0 mm
22:07 58.1 °F /  14.5 °C 52.3 °F /  11.3 °C 30.02 in /  1016.5 hPa WSW 1.4 mph /  2.3 km/h 3.5 mph /  5.6 km/h 81 % 0.00 in /  0 mm
22:12 58.1 °F /  14.5 °C 52.3 °F /  11.3 °C 30.02 in /  1016.5 hPa WSW 2.3 mph /  3.7 km/h 4.0 mph /  6.4 km/h 81 % 0.00 in /  0 mm
22:18 58.0 °F /  14.4 °C 52.2 °F /  11.2 °C 30.03 in /  1016.8 hPa WSW 4.9 mph /  7.9 km/h 5.8 mph /  9.3 km/h 81 % 0.00 in /  0 mm
22:23 58.0 °F /  14.4 °C 52.5 °F /  11.4 °C 30.02 in /  1016.5 hPa WSW 2.0 mph /  3.2 km/h 3.5 mph /  5.6 km/h 82 % 0.00 in /  0 mm
22:28 58.0 °F /  14.4 °C 52.5 °F /  11.4 °C 30.03 in /  1016.8 hPa SW 3.2 mph /  5.1 km/h 4.0 mph /  6.4 km/h 82 % 0.00 in /  0 mm
22:33 58.0 °F /  14.4 °C 52.5 °F /  11.4 °C 30.03 in /  1016.8 hPa WSW 4.6 mph /  7.4 km/h 6.9 mph /  11.1 km/h 82 % 0.00 in /  0 mm
22:38 58.1 °F /  14.5 °C 52.6 °F /  11.4 °C 30.02 in /  1016.5 hPa SW 0.9 mph /  1.4 km/h 2.3 mph /  3.7 km/h 82 % 0.00 in /  0 mm
22:43 58.1 °F /  14.5 °C 52.6 °F /  11.4 °C 30.01 in /  1016.1 hPa SW 4.9 mph /  7.9 km/h 9.2 mph /  14.8 km/h 82 % 0.00 in /  0 mm
22:48 58.2 °F /  14.6 °C 52.4 °F /  11.3 °C 30.00 in /  1015.8 hPa SSW 4.2 mph /  6.8 km/h 11.0 mph /  17.7 km/h 81 % 0.00 in /  0 mm
22:53 58.3 °F /  14.6 °C 52.5 °F /  11.4 °C 30.00 in /  1015.8 hPa SSW 4.0 mph /  6.4 km/h 5.8 mph /  9.3 km/h 81 % 0.00 in /  0 mm
22:58 58.5 °F /  14.7 °C 52.7 °F /  11.5 °C 30.00 in /  1015.8 hPa South 3.2 mph /  5.1 km/h 10.4 mph /  16.7 km/h 81 % 0.00 in /  0 mm
23:03 58.7 °F /  14.8 °C 52.9 °F /  11.6 °C 30.00 in /  1015.8 hPa SSW 5.3 mph /  8.5 km/h 9.2 mph /  14.8 km/h 81 % 0.00 in /  0 mm
23:08 58.9 °F /  14.9 °C 52.7 °F /  11.5 °C 30.01 in /  1016.1 hPa SW 5.3 mph /  8.5 km/h 9.2 mph /  14.8 km/h 80 % 0.00 in /  0 mm
23:13 59.1 °F /  15.1 °C 52.9 °F /  11.6 °C 30.01 in /  1016.1 hPa SW 7.3 mph /  11.7 km/h 10.4 mph /  16.7 km/h 80 % 0.00 in /  0 mm
23:18 59.3 °F /  15.2 °C 52.8 °F /  11.6 °C 30.01 in /  1016.1 hPa SSW 6.6 mph /  10.6 km/h 12.0 mph /  19.3 km/h 79 % 0.00 in /  0 mm
23:23 59.5 °F /  15.3 °C 53.0 °F /  11.7 °C 30.00 in /  1015.8 hPa SW 5.8 mph /  9.3 km/h 9.2 mph /  14.8 km/h 79 % 0.00 in /  0 mm
23:28 59.7 °F /  15.4 °C 53.2 °F /  11.8 °C 30.01 in /  1016.1 hPa South 4.4 mph /  7.1 km/h 11.0 mph /  17.7 km/h 79 % 0.00 in /  0 mm
23:33 59.8 °F /  15.4 °C 52.9 °F /  11.6 °C 30.01 in /  1016.1 hPa South 6.8 mph /  10.9 km/h 13.8 mph /  22.2 km/h 78 % 0.00 in /  0 mm
23:38 60.0 °F /  15.6 °C 53.1 °F /  11.7 °C 30.02 in /  1016.5 hPa WSW 6.8 mph /  10.9 km/h 9.2 mph /  14.8 km/h 78 % 0.00 in /  0 mm
23:43 60.0 °F /  15.6 °C 53.1 °F /  11.7 °C 30.01 in /  1016.1 hPa WSW 3.4 mph /  5.5 km/h 8.1 mph /  13 km/h 78 % 0.00 in /  0 mm
23:49 60.1 °F /  15.6 °C 53.2 °F /  11.8 °C 30.01 in /  1016.1 hPa SW 5.0 mph /  8 km/h 11.5 mph /  18.5 km/h 78 % 0.00 in /  0 mm
23:54 60.2 °F /  15.7 °C 53.3 °F /  11.8 °C 30.01 in /  1016.1 hPa SW 2.4 mph /  3.9 km/h 4.6 mph /  7.4 km/h 78 % 0.00 in /  0 mm
23:59 60.2 °F /  15.7 °C 53.0 °F /  11.7 °C 30.02 in /  1016.5 hPa WSW 7.4 mph /  11.9 km/h 11.0 mph /  17.7 km/h 77 % 0.00 in /  0 mm
Crab Meadow Weather
Compliments of Weather Underground - 3 mb

Script developed by  Jim McMurry - jmcmurry@mwt.net Adapted for the template by  Wim van der Kuil - Leuven-Template.eu

Humidity: Humidity is the amount of water vapor in the air. The term "humidity" refers to relative humidity. Relative humidity is defined as the amount of water vapor in a sample of air compared to the maximum amount of water vapor the air can hold at any specific temperature in a form of 0 to 100%. Relative humidity is important in forecasting weather. Humidity indicates the likelihood of precipitation, dew, or fog. High humidity makes people feel hotter outside in the summer because it reduces the effectiveness of sweating to cool the body by preventing the evaporation of perspiration from the skin.